Time,TemperatureF,DewpointF,PressureIn,WindDirection,WindDirectionDegrees,WindSpeedMPH,WindSpeedGustMPH,Humidity,HourlyPrecipIn,Conditions,Clouds,dailyrainin,SoftwareType,DateUTC
2013-02-25 00:09:00,26.1,24.4,29.89,ESE,112,0.0,-999.0,93,-99.99,,,0.00,Acu-Link.com,2013-02-25 06:09:00,
2013-02-25 00:24:00,25.9,24.4,29.87,ESE,112,0.0,-999.0,94,-99.99,,,0.00,Acu-Link.com,2013-02-25 06:24:00,
2013-02-25 00:39:00,25.9,24.7,29.87,ESE,112,0.0,-999.0,95,-99.99,,,0.00,Acu-Link.com,2013-02-25 06:39:00,
2013-02-25 00:55:00,26.1,25.1,29.88,ESE,112,0.0,-999.0,96,-99.99,,,0.00,Acu-Link.com,2013-02-25 06:55:00,
2013-02-25 01:10:00,25.3,24.3,29.88,ESE,112,0.0,-999.0,96,-99.99,,,0.00,Acu-Link.com,2013-02-25 07:10:00,
2013-02-25 01:25:00,25.0,24.0,29.89,ESE,112,0.0,-999.0,96,-99.99,,,0.00,Acu-Link.com,2013-02-25 07:25:00,
2013-02-25 01:40:00,24.8,24.1,29.89,ESE,112,0.0,-999.0,97,-99.99,,,0.00,Acu-Link.com,2013-02-25 07:40:00,
2013-02-25 01:56:00,24.4,23.9,29.89,ESE,112,0.0,-999.0,98,-99.99,,,0.00,Acu-Link.com,2013-02-25 07:56:00,
2013-02-25 02:11:00,24.4,23.9,29.89,ESE,112,0.0,-999.0,98,-99.99,,,0.00,Acu-Link.com,2013-02-25 08:11:00,
2013-02-25 02:26:00,24.6,24.4,29.88,ESE,112,0.0,-999.0,99,-99.99,,,0.00,Acu-Link.com,2013-02-25 08:26:00,
2013-02-25 02:41:00,24.8,24.6,29.88,ESE,112,0.0,-999.0,99,-99.99,,,0.00,Acu-Link.com,2013-02-25 08:41:00,
2013-02-25 02:57:00,25.2,24.7,29.88,ESE,112,0.0,-999.0,98,-99.99,,,0.00,Acu-Link.com,2013-02-25 08:57:00,
2013-02-25 03:18:00,25.2,24.7,29.88,ESE,112,0.0,-999.0,98,-99.99,,,0.00,Acu-Link.com,2013-02-25 09:18:00,
2013-02-25 03:33:00,25.0,24.3,29.88,ESE,112,0.0,-999.0,97,-99.99,,,0.00,Acu-Link.com,2013-02-25 09:33:00,
2013-02-25 03:48:00,24.8,24.1,29.88,ESE,112,0.0,-999.0,97,-99.99,,,0.00,Acu-Link.com,2013-02-25 09:48:00,
2013-02-25 04:03:00,25.0,24.3,29.87,ESE,112,0.0,-999.0,97,-99.99,,,0.00,Acu-Link.com,2013-02-25 10:03:00,
2013-02-25 04:19:00,24.4,23.7,29.89,ESE,112,0.0,-999.0,97,-99.99,,,0.00,Acu-Link.com,2013-02-25 10:19:00,
2013-02-25 04:34:00,24.4,23.7,29.89,ESE,112,0.0,-999.0,97,-99.99,,,0.00,Acu-Link.com,2013-02-25 10:34:00,
2013-02-25 04:49:00,24.4,23.7,29.90,ESE,112,0.0,-999.0,97,-99.99,,,0.00,Acu-Link.com,2013-02-25 10:49:00,
2013-02-25 05:04:00,24.4,23.7,29.89,ESE,112,0.0,-999.0,97,-99.99,,,0.00,Acu-Link.com,2013-02-25 11:04:00,
2013-02-25 05:19:00,24.6,23.9,29.90,ESE,112,1.7,-999.0,97,-99.99,,,0.00,Acu-Link.com,2013-02-25 11:19:00,
2013-02-25 05:34:00,24.8,24.1,29.89,ESE,112,0.0,-999.0,97,-99.99,,,0.00,Acu-Link.com,2013-02-25 11:34:00,
2013-02-25 05:50:00,24.4,23.7,29.89,ESE,112,0.0,-999.0,97,-99.99,,,0.00,Acu-Link.com,2013-02-25 11:50:00,
2013-02-25 06:05:00,24.4,23.7,29.88,ESE,112,1.7,-999.0,97,-99.99,,,0.00,Acu-Link.com,2013-02-25 12:05:00,
2013-02-25 06:20:00,24.4,23.7,29.88,ESE,112,1.7,-999.0,97,-99.99,,,0.00,Acu-Link.com,2013-02-25 12:20:00,
2013-02-25 06:35:00,24.3,23.6,29.88,ESE,112,0.0,-999.0,97,-99.99,,,0.00,Acu-Link.com,2013-02-25 12:35:00,
2013-02-25 07:06:00,24.4,23.7,29.88,ESE,112,0.0,-999.0,97,-99.99,,,0.00,Acu-Link.com,2013-02-25 13:06:00,
2013-02-25 07:21:00,25.3,24.6,29.88,ESE,112,0.0,-999.0,97,-99.99,,,0.00,Acu-Link.com,2013-02-25 13:21:00,
2013-02-25 07:36:00,25.9,24.7,29.87,ESE,112,0.0,-999.0,95,-99.99,,,0.00,Acu-Link.com,2013-02-25 13:36:00,
2013-02-25 07:51:00,27.3,25.3,29.88,ESE,112,3.2,-999.0,92,-99.99,,,0.00,Acu-Link.com,2013-02-25 13:51:00,
2013-02-25 08:07:00,29.1,26.0,29.88,East,90,0.0,-999.0,88,-99.99,,,0.00,Acu-Link.com,2013-02-25 14:07:00,
2013-02-25 08:22:00,30.7,26.4,29.88,East,90,0.0,-999.0,84,-99.99,,,0.00,Acu-Link.com,2013-02-25 14:22:00,
2013-02-25 08:37:00,31.5,26.9,29.88,East,90,0.0,-999.0,83,-99.99,,,0.00,Acu-Link.com,2013-02-25 14:37:00,
2013-02-25 08:53:00,32.4,27.2,29.87,East,90,0.0,-999.0,81,-99.99,,,0.00,Acu-Link.com,2013-02-25 14:53:00,
2013-02-25 09:08:00,33.3,28.1,29.87,East,90,4.2,-999.0,81,-99.99,,,0.00,Acu-Link.com,2013-02-25 15:08:00,
2013-02-25 09:23:00,35.1,28.6,29.87,East,90,2.7,-999.0,77,-99.99,,,0.00,Acu-Link.com,2013-02-25 15:23:00,
2013-02-25 09:38:00,36.3,29.1,29.87,NNE,22,0.0,-999.0,75,-99.99,,,0.00,Acu-Link.com,2013-02-25 15:38:00,
2013-02-25 09:53:00,36.7,29.2,29.86,East,90,1.1,-999.0,74,-99.99,,,0.00,Acu-Link.com,2013-02-25 15:53:00,
2013-02-25 10:08:00,37.0,29.2,29.87,East,90,3.2,-999.0,73,-99.99,,,0.00,Acu-Link.com,2013-02-25 16:08:00,
2013-02-25 10:24:00,37.9,29.4,29.89,ESE,112,5.3,-999.0,71,-99.99,,,0.00,Acu-Link.com,2013-02-25 16:24:00,
2013-02-25 10:39:00,38.3,29.7,29.87,SE,135,1.1,-999.0,71,-99.99,,,0.01,Acu-Link.com,2013-02-25 16:39:00,
2013-02-25 10:54:00,39.0,29.7,29.88,ENE,67,2.2,-999.0,69,-99.99,,,0.01,Acu-Link.com,2013-02-25 16:54:00,
2013-02-25 11:09:00,39.4,30.1,29.88,ENE,67,3.2,-999.0,69,-99.99,,,0.01,Acu-Link.com,2013-02-25 17:09:00,
2013-02-25 11:24:00,39.4,30.1,29.87,East,90,6.3,-999.0,69,-99.99,,,0.01,Acu-Link.com,2013-02-25 17:24:00,
2013-02-25 11:40:00,39.9,30.2,29.87,East,90,9.4,-999.0,68,-99.99,,,0.02,Acu-Link.com,2013-02-25 17:40:00,
2013-02-25 11:55:00,40.3,30.6,29.86,ENE,67,5.3,-999.0,68,-99.99,,,0.02,Acu-Link.com,2013-02-25 17:55:00,
2013-02-25 12:10:00,40.8,30.7,29.86,NNE,22,2.2,-999.0,67,-99.99,,,0.03,Acu-Link.com,2013-02-25 18:10:00,
2013-02-25 12:25:00,41.9,31.8,29.85,East,90,2.2,-999.0,67,-99.99,,,0.04,Acu-Link.com,2013-02-25 18:25:00,
2013-02-25 12:41:00,41.5,31.7,29.83,ESE,112,6.3,-999.0,68,-99.99,,,0.05,Acu-Link.com,2013-02-25 18:41:00,
2013-02-25 12:56:00,42.1,32.7,29.83,ESE,112,3.2,-999.0,69,-99.99,,,0.06,Acu-Link.com,2013-02-25 18:56:00,
2013-02-25 13:11:00,41.4,32.0,29.82,ESE,112,0.0,-999.0,69,-99.99,,,0.07,Acu-Link.com,2013-02-25 19:11:00,
2013-02-25 13:26:00,42.8,32.6,29.83,East,90,0.0,-999.0,67,-99.99,,,0.08,Acu-Link.com,2013-02-25 19:26:00,
2013-02-25 13:41:00,43.2,33.0,29.82,NE,45,4.7,-999.0,67,-99.99,,,0.09,Acu-Link.com,2013-02-25 19:41:00,
2013-02-25 13:57:00,42.3,32.9,29.81,East,90,0.0,-999.0,69,-99.99,,,0.10,Acu-Link.com,2013-02-25 19:57:00,
2013-02-25 14:12:00,42.4,33.3,29.81,SE,135,0.0,-999.0,70,-99.99,,,0.11,Acu-Link.com,2013-02-25 20:12:00,
2013-02-25 14:28:00,43.0,33.5,29.81,East,90,0.0,-999.0,69,-99.99,,,0.12,Acu-Link.com,2013-02-25 20:28:00,
2013-02-25 14:43:00,43.2,33.7,29.79,East,90,5.3,-999.0,69,-99.99,,,0.12,Acu-Link.com,2013-02-25 20:43:00,
2013-02-25 14:58:00,42.8,33.7,29.79,NE,45,5.3,-999.0,70,-99.99,,,0.13,Acu-Link.com,2013-02-25 20:58:00,
2013-02-25 15:13:00,42.3,32.9,29.77,NE,45,6.3,-999.0,69,-99.99,,,0.13,Acu-Link.com,2013-02-25 21:13:00,
2013-02-25 15:28:00,42.3,33.6,29.77,NNE,22,6.8,-999.0,71,-99.99,,,0.13,Acu-Link.com,2013-02-25 21:28:00,
2013-02-25 15:44:00,41.7,33.0,29.76,East,90,5.3,-999.0,71,-99.99,,,0.14,Acu-Link.com,2013-02-25 21:44:00,
2013-02-25 15:59:00,41.5,32.8,29.76,ENE,67,2.7,-999.0,71,-99.99,,,0.14,Acu-Link.com,2013-02-25 21:59:00,
2013-02-25 16:14:00,41.2,33.2,29.75,NNE,22,2.7,-999.0,73,-99.99,,,0.14,Acu-Link.com,2013-02-25 22:14:00,
2013-02-25 16:29:00,40.6,33.0,29.75,NNE,22,4.2,-999.0,74,-99.99,,,0.14,Acu-Link.com,2013-02-25 22:29:00,
2013-02-25 16:44:00,40.1,32.8,29.75,ESE,112,6.8,-999.0,75,-99.99,,,0.14,Acu-Link.com,2013-02-25 22:44:00,
2013-02-25 16:59:00,39.6,32.3,29.74,East,90,6.3,-999.0,75,-99.99,,,0.14,Acu-Link.com,2013-02-25 22:59:00,
2013-02-25 17:15:00,39.0,32.7,29.74,NE,45,6.8,-999.0,78,-99.99,,,0.14,Acu-Link.com,2013-02-25 23:15:00,
2013-02-25 17:30:00,38.3,32.1,29.74,East,90,4.2,-999.0,78,-99.99,,,0.14,Acu-Link.com,2013-02-25 23:30:00,
2013-02-25 17:45:00,37.6,31.7,29.73,ENE,67,4.7,-999.0,79,-99.99,,,0.14,Acu-Link.com,2013-02-25 23:45:00,
2013-02-25 18:00:00,37.4,31.5,29.72,ESE,112,6.8,-999.0,79,-99.99,,,0.14,Acu-Link.com,2013-02-26 00:00:00,
2013-02-25 18:16:00,36.9,31.0,29.73,NE,45,6.8,-999.0,79,-99.99,,,0.14,Acu-Link.com,2013-02-26 00:16:00,
2013-02-25 18:31:00,36.7,30.8,29.74,NE,45,2.7,-999.0,79,-99.99,,,0.14,Acu-Link.com,2013-02-26 00:31:00,
2013-02-25 18:46:00,36.3,30.7,29.73,NE,45,1.7,-999.0,80,-99.99,,,0.14,Acu-Link.com,2013-02-26 00:46:00,
2013-02-25 19:01:00,35.8,30.9,29.74,East,90,0.0,-999.0,82,-99.99,,,0.14,Acu-Link.com,2013-02-26 01:01:00,
2013-02-25 19:16:00,35.4,30.5,29.71,NNE,22,4.7,-999.0,82,-99.99,,,0.14,Acu-Link.com,2013-02-26 01:16:00,
2013-02-25 19:32:00,35.2,30.3,29.72,ENE,67,2.7,-999.0,82,-99.99,,,0.14,Acu-Link.com,2013-02-26 01:32:00,
2013-02-25 19:47:00,35.4,29.9,29.72,NE,45,7.8,-999.0,80,-99.99,,,0.14,Acu-Link.com,2013-02-26 01:47:00,
2013-02-25 20:02:00,35.6,30.1,29.71,NNE,22,3.2,-999.0,80,-99.99,,,0.14,Acu-Link.com,2013-02-26 02:02:00,
2013-02-25 20:17:00,35.6,29.7,29.71,NNE,22,4.2,-999.0,79,-99.99,,,0.14,Acu-Link.com,2013-02-26 02:17:00,
2013-02-25 20:33:00,35.6,29.7,29.72,North,0,4.7,-999.0,79,-99.99,,,0.14,Acu-Link.com,2013-02-26 02:33:00,
2013-02-25 20:48:00,35.8,29.6,29.73,NNE,22,13.5,-999.0,78,-99.99,,,0.14,Acu-Link.com,2013-02-26 02:48:00,
2013-02-25 21:03:00,35.8,29.6,29.75,ENE,67,2.7,-999.0,78,-99.99,,,0.14,Acu-Link.com,2013-02-26 03:03:00,
2013-02-25 21:18:00,35.8,29.6,29.74,ENE,67,2.2,-999.0,78,-99.99,,,0.14,Acu-Link.com,2013-02-26 03:18:00,
2013-02-25 21:33:00,35.2,29.4,29.74,NNE,22,4.2,-999.0,79,-99.99,,,0.14,Acu-Link.com,2013-02-26 03:33:00,
2013-02-25 21:48:00,34.7,29.5,29.72,NNE,22,5.3,-999.0,81,-99.99,,,0.14,Acu-Link.com,2013-02-26 03:48:00,
2013-02-25 22:03:00,34.7,29.5,29.70,NE,45,3.2,-999.0,81,-99.99,,,0.14,Acu-Link.com,2013-02-26 04:03:00,
2013-02-25 22:18:00,34.3,29.1,29.69,NE,45,4.2,-999.0,81,-99.99,,,0.14,Acu-Link.com,2013-02-26 04:18:00,
2013-02-25 22:33:00,34.3,29.4,29.66,NNW,337,9.9,-999.0,82,-99.99,,,0.14,Acu-Link.com,2013-02-26 04:33:00,
2013-02-25 22:49:00,34.2,29.3,29.66,NNE,22,5.3,-999.0,82,-99.99,,,0.14,Acu-Link.com,2013-02-26 04:49:00,
2013-02-25 23:04:00,34.3,29.1,29.65,ENE,67,9.4,-999.0,81,-99.99,,,0.14,Acu-Link.com,2013-02-26 05:04:00,
2013-02-25 23:19:00,34.5,29.0,29.64,NNE,22,6.3,-999.0,80,-99.99,,,0.14,Acu-Link.com,2013-02-26 05:19:00,
2013-02-25 23:34:00,34.5,29.0,29.64,NNW,337,5.3,-999.0,80,-99.99,,,0.14,Acu-Link.com,2013-02-26 05:34:00,
2013-02-25 23:49:00,34.5,29.0,29.63,NNE,22,4.7,-999.0,80,-99.99,,,0.14,Acu-Link.com,2013-02-26 05:49:00,